sensor_id;sensor_type;location;lat;lon;timestamp;temperature;humidity
20744;DHT22;56303;52.160;-0.428;2024-03-17T00:00:04;11.00;99.90
20744;DHT22;56303;52.160;-0.428;2024-03-17T00:02:30;11.70;99.90
20744;DHT22;56303;52.160;-0.428;2024-03-17T00:04:57;11.80;99.90
20744;DHT22;56303;52.160;-0.428;2024-03-17T00:07:23;11.70;99.90
20744;DHT22;56303;52.160;-0.428;2024-03-17T00:09:49;11.70;99.90
20744;DHT22;56303;52.160;-0.428;2024-03-17T00:12:15;11.80;99.90
20744;DHT22;56303;52.160;-0.428;2024-03-17T00:14:41;11.50;99.90
20744;DHT22;56303;52.160;-0.428;2024-03-17T00:17:08;11.60;99.90
20744;DHT22;56303;52.160;-0.428;2024-03-17T00:19:34;11.70;99.90
20744;DHT22;56303;52.160;-0.428;2024-03-17T00:22:00;11.50;99.90
20744;DHT22;56303;52.160;-0.428;2024-03-17T00:24:26;11.70;99.90
20744;DHT22;56303;52.160;-0.428;2024-03-17T00:26:52;11.60;99.90
20744;DHT22;56303;52.160;-0.428;2024-03-17T00:29:19;11.70;99.90
20744;DHT22;56303;52.160;-0.428;2024-03-17T00:31:45;11.70;99.90
20744;DHT22;56303;52.160;-0.428;2024-03-17T00:34:11;12.00;99.90
20744;DHT22;56303;52.160;-0.428;2024-03-17T00:36:37;12.10;99.90
20744;DHT22;56303;52.160;-0.428;2024-03-17T00:39:02;12.10;99.90
20744;DHT22;56303;52.160;-0.428;2024-03-17T00:41:29;11.90;99.90
20744;DHT22;56303;52.160;-0.428;2024-03-17T00:43:55;11.80;99.90
20744;DHT22;56303;52.160;-0.428;2024-03-17T00:46:21;11.90;99.90
20744;DHT22;56303;52.160;-0.428;2024-03-17T00:48:50;12.10;99.90
20744;DHT22;56303;52.160;-0.428;2024-03-17T00:51:16;12.00;99.90
20744;DHT22;56303;52.160;-0.428;2024-03-17T00:53:42;11.10;99.90
20744;DHT22;56303;52.160;-0.428;2024-03-17T00:56:08;12.30;99.90
20744;DHT22;56303;52.160;-0.428;2024-03-17T00:58:34;12.10;99.90
20744;DHT22;56303;52.160;-0.428;2024-03-17T01:01:00;12.30;99.90
20744;DHT22;56303;52.160;-0.428;2024-03-17T01:03:27;12.30;99.90
20744;DHT22;56303;52.160;-0.428;2024-03-17T01:05:53;12.30;99.90
20744;DHT22;56303;52.160;-0.428;2024-03-17T01:08:20;12.50;99.90
20744;DHT22;56303;52.160;-0.428;2024-03-17T01:10:47;12.30;99.90
20744;DHT22;56303;52.160;-0.428;2024-03-17T01:13:17;12.30;99.90
20744;DHT22;56303;52.160;-0.428;2024-03-17T01:15:43;12.10;99.90
20744;DHT22;56303;52.160;-0.428;2024-03-17T01:18:09;12.30;99.90
20744;DHT22;56303;52.160;-0.428;2024-03-17T01:20:36;12.20;99.90
20744;DHT22;56303;52.160;-0.428;2024-03-17T01:23:03;13.20;99.90
20744;DHT22;56303;52.160;-0.428;2024-03-17T01:25:29;12.30;99.90
20744;DHT22;56303;52.160;-0.428;2024-03-17T01:27:56;12.30;99.90
20744;DHT22;56303;52.160;-0.428;2024-03-17T01:30:23;12.50;99.90
20744;DHT22;56303;52.160;-0.428;2024-03-17T01:32:50;12.50;99.90
20744;DHT22;56303;52.160;-0.428;2024-03-17T01:35:16;12.60;99.90
20744;DHT22;56303;52.160;-0.428;2024-03-17T01:37:42;12.40;99.90
20744;DHT22;56303;52.160;-0.428;2024-03-17T01:40:09;12.50;99.90
20744;DHT22;56303;52.160;-0.428;2024-03-17T01:42:40;12.60;99.90
20744;DHT22;56303;52.160;-0.428;2024-03-17T01:45:25;12.60;99.90
20744;DHT22;56303;52.160;-0.428;2024-03-17T01:47:53;12.50;99.90
20744;DHT22;56303;52.160;-0.428;2024-03-17T01:50:19;12.40;99.90
20744;DHT22;56303;52.160;-0.428;2024-03-17T01:52:54;12.30;99.90
20744;DHT22;56303;52.160;-0.428;2024-03-17T01:55:21;12.40;99.90
20744;DHT22;56303;52.160;-0.428;2024-03-17T01:57:50;12.40;99.90
20744;DHT22;56303;52.160;-0.428;2024-03-17T02:00:16;12.50;99.90
20744;DHT22;56303;52.160;-0.428;2024-03-17T02:02:42;12.50;99.90
20744;DHT22;56303;52.160;-0.428;2024-03-17T02:05:08;13.90;99.90
20744;DHT22;56303;52.160;-0.428;2024-03-17T02:07:34;12.50;99.90
20744;DHT22;56303;52.160;-0.428;2024-03-17T02:10:00;12.70;99.90
20744;DHT22;56303;52.160;-0.428;2024-03-17T02:12:27;12.50;99.90
20744;DHT22;56303;52.160;-0.428;2024-03-17T02:14:53;12.60;99.90
20744;DHT22;56303;52.160;-0.428;2024-03-17T02:17:19;12.70;99.90
20744;DHT22;56303;52.160;-0.428;2024-03-17T02:19:45;12.50;99.90
20744;DHT22;56303;52.160;-0.428;2024-03-17T02:22:14;12.60;99.90
20744;DHT22;56303;52.160;-0.428;2024-03-17T02:24:41;12.50;99.90
20744;DHT22;56303;52.160;-0.428;2024-03-17T02:27:06;12.30;99.90
20744;DHT22;56303;52.160;-0.428;2024-03-17T02:29:32;12.20;99.90
20744;DHT22;56303;52.160;-0.428;2024-03-17T02:31:58;12.00;99.90
20744;DHT22;56303;52.160;-0.428;2024-03-17T02:34:24;12.20;99.90
20744;DHT22;56303;52.160;-0.428;2024-03-17T02:36:50;12.30;99.90
20744;DHT22;56303;52.160;-0.428;2024-03-17T02:39:16;12.30;99.90
20744;DHT22;56303;52.160;-0.428;2024-03-17T02:42:04;12.20;99.90
20744;DHT22;56303;52.160;-0.428;2024-03-17T02:44:31;12.00;99.90
20744;DHT22;56303;52.160;-0.428;2024-03-17T02:46:58;12.00;99.90
20744;DHT22;56303;52.160;-0.428;2024-03-17T02:49:28;12.30;99.90
20744;DHT22;56303;52.160;-0.428;2024-03-17T02:52:01;12.30;99.90
20744;DHT22;56303;52.160;-0.428;2024-03-17T02:54:27;12.40;99.90
20744;DHT22;56303;52.160;-0.428;2024-03-17T02:56:53;12.40;99.90
20744;DHT22;56303;52.160;-0.428;2024-03-17T02:59:18;12.50;99.90
20744;DHT22;56303;52.160;-0.428;2024-03-17T03:01:44;12.10;99.90
20744;DHT22;56303;52.160;-0.428;2024-03-17T03:04:11;12.20;99.90
20744;DHT22;56303;52.160;-0.428;2024-03-17T03:06:37;12.10;99.90
20744;DHT22;56303;52.160;-0.428;2024-03-17T03:09:04;12.40;99.90
20744;DHT22;56303;52.160;-0.428;2024-03-17T03:11:35;12.40;99.90
20744;DHT22;56303;52.160;-0.428;2024-03-17T03:14:01;12.40;99.90
20744;DHT22;56303;52.160;-0.428;2024-03-17T03:16:28;12.40;99.90
20744;DHT22;56303;52.160;-0.428;2024-03-17T03:18:54;12.60;99.90
20744;DHT22;56303;52.160;-0.428;2024-03-17T03:21:19;12.40;99.90
20744;DHT22;56303;52.160;-0.428;2024-03-17T03:23:47;12.50;99.90
20744;DHT22;56303;52.160;-0.428;2024-03-17T03:26:13;12.40;99.90
20744;DHT22;56303;52.160;-0.428;2024-03-17T03:28:39;12.40;99.90
20744;DHT22;56303;52.160;-0.428;2024-03-17T03:31:05;12.60;99.90
20744;DHT22;56303;52.160;-0.428;2024-03-17T03:33:32;12.70;99.90
20744;DHT22;56303;52.160;-0.428;2024-03-17T03:35:58;12.70;99.90
20744;DHT22;56303;52.160;-0.428;2024-03-17T03:38:24;12.50;99.90
20744;DHT22;56303;52.160;-0.428;2024-03-17T03:40:50;12.50;99.90
20744;DHT22;56303;52.160;-0.428;2024-03-17T03:43:18;12.70;99.90
20744;DHT22;56303;52.160;-0.428;2024-03-17T03:45:44;12.30;99.90
20744;DHT22;56303;52.160;-0.428;2024-03-17T03:48:10;12.70;99.90
20744;DHT22;56303;52.160;-0.428;2024-03-17T03:50:38;12.50;99.90
20744;DHT22;56303;52.160;-0.428;2024-03-17T03:53:04;12.80;99.90
20744;DHT22;56303;52.160;-0.428;2024-03-17T03:55:31;12.70;99.90
20744;DHT22;56303;52.160;-0.428;2024-03-17T03:57:57;12.90;99.90
20744;DHT22;56303;52.160;-0.428;2024-03-17T04:00:23;12.80;99.90
20744;DHT22;56303;52.160;-0.428;2024-03-17T04:02:52;12.90;99.90
20744;DHT22;56303;52.160;-0.428;2024-03-17T04:05:19;13.00;99.90
20744;DHT22;56303;52.160;-0.428;2024-03-17T04:07:46;12.90;99.90
20744;DHT22;56303;52.160;-0.428;2024-03-17T04:10:14;12.90;99.90
20744;DHT22;56303;52.160;-0.428;2024-03-17T04:12:40;12.80;99.90
20744;DHT22;56303;52.160;-0.428;2024-03-17T04:15:06;12.70;99.90
20744;DHT22;56303;52.160;-0.428;2024-03-17T04:17:33;12.70;99.90
20744;DHT22;56303;52.160;-0.428;2024-03-17T04:19:59;12.60;99.90
20744;DHT22;56303;52.160;-0.428;2024-03-17T04:22:25;12.60;99.90
20744;DHT22;56303;52.160;-0.428;2024-03-17T04:24:51;12.80;99.90
20744;DHT22;56303;52.160;-0.428;2024-03-17T04:27:22;12.80;99.90
20744;DHT22;56303;52.160;-0.428;2024-03-17T04:29:52;12.90;99.90
20744;DHT22;56303;52.160;-0.428;2024-03-17T04:32:19;13.00;99.90
20744;DHT22;56303;52.160;-0.428;2024-03-17T04:34:45;13.00;99.90
20744;DHT22;56303;52.160;-0.428;2024-03-17T04:37:13;13.10;99.90
20744;DHT22;56303;52.160;-0.428;2024-03-17T04:39:39;13.10;99.90
20744;DHT22;56303;52.160;-0.428;2024-03-17T04:42:06;12.70;99.90
20744;DHT22;56303;52.160;-0.428;2024-03-17T04:44:35;12.90;99.90
20744;DHT22;56303;52.160;-0.428;2024-03-17T04:47:01;13.10;99.90
20744;DHT22;56303;52.160;-0.428;2024-03-17T04:49:34;13.00;99.90
20744;DHT22;56303;52.160;-0.428;2024-03-17T04:52:00;13.10;99.90
20744;DHT22;56303;52.160;-0.428;2024-03-17T04:54:26;12.90;99.90
20744;DHT22;56303;52.160;-0.428;2024-03-17T04:56:52;12.90;99.90
20744;DHT22;56303;52.160;-0.428;2024-03-17T04:59:19;12.90;99.90
20744;DHT22;56303;52.160;-0.428;2024-03-17T05:01:45;13.00;99.90
20744;DHT22;56303;52.160;-0.428;2024-03-17T05:04:10;12.90;99.90
20744;DHT22;56303;52.160;-0.428;2024-03-17T05:06:36;13.00;99.90
20744;DHT22;56303;52.160;-0.428;2024-03-17T05:09:02;13.00;99.90
20744;DHT22;56303;52.160;-0.428;2024-03-17T05:11:30;12.90;99.90
20744;DHT22;56303;52.160;-0.428;2024-03-17T05:13:57;13.00;99.90
20744;DHT22;56303;52.160;-0.428;2024-03-17T05:16:24;13.10;99.90
20744;DHT22;56303;52.160;-0.428;2024-03-17T05:18:50;13.10;99.90
20744;DHT22;56303;52.160;-0.428;2024-03-17T05:21:16;13.20;99.90
20744;DHT22;56303;52.160;-0.428;2024-03-17T05:23:42;13.00;99.90
20744;DHT22;56303;52.160;-0.428;2024-03-17T05:26:08;13.10;99.90
20744;DHT22;56303;52.160;-0.428;2024-03-17T05:28:34;13.10;99.90
20744;DHT22;56303;52.160;-0.428;2024-03-17T05:30:59;14.30;99.90
20744;DHT22;56303;52.160;-0.428;2024-03-17T05:33:26;13.20;99.90
20744;DHT22;56303;52.160;-0.428;2024-03-17T05:35:55;13.30;99.90
20744;DHT22;56303;52.160;-0.428;2024-03-17T05:38:22;13.40;99.90
20744;DHT22;56303;52.160;-0.428;2024-03-17T05:40:56;13.50;99.90
20744;DHT22;56303;52.160;-0.428;2024-03-17T05:43:23;13.30;99.90
20744;DHT22;56303;52.160;-0.428;2024-03-17T05:46:00;13.30;99.90
20744;DHT22;56303;52.160;-0.428;2024-03-17T05:48:29;13.30;99.90
20744;DHT22;56303;52.160;-0.428;2024-03-17T05:50:55;13.50;99.90
20744;DHT22;56303;52.160;-0.428;2024-03-17T05:53:22;13.50;99.90
20744;DHT22;56303;52.160;-0.428;2024-03-17T05:55:51;13.60;99.90
20744;DHT22;56303;52.160;-0.428;2024-03-17T05:58:17;13.50;99.90
20744;DHT22;56303;52.160;-0.428;2024-03-17T06:00:43;13.40;99.90
20744;DHT22;56303;52.160;-0.428;2024-03-17T06:03:10;13.20;99.90
20744;DHT22;56303;52.160;-0.428;2024-03-17T06:05:38;13.10;99.90
20744;DHT22;56303;52.160;-0.428;2024-03-17T06:08:06;13.30;99.90
20744;DHT22;56303;52.160;-0.428;2024-03-17T06:10:38;13.40;99.90
20744;DHT22;56303;52.160;-0.428;2024-03-17T06:13:08;13.50;99.90
20744;DHT22;56303;52.160;-0.428;2024-03-17T06:15:38;13.60;99.90
20744;DHT22;56303;52.160;-0.428;2024-03-17T06:18:04;13.70;99.90
20744;DHT22;56303;52.160;-0.428;2024-03-17T06:20:30;13.70;99.90
20744;DHT22;56303;52.160;-0.428;2024-03-17T06:22:56;13.60;99.90
20744;DHT22;56303;52.160;-0.428;2024-03-17T06:25:22;13.70;99.90
20744;DHT22;56303;52.160;-0.428;2024-03-17T06:27:51;13.70;99.90
20744;DHT22;56303;52.160;-0.428;2024-03-17T06:30:18;13.80;99.90
20744;DHT22;56303;52.160;-0.428;2024-03-17T06:32:45;13.70;99.90
20744;DHT22;56303;52.160;-0.428;2024-03-17T06:35:15;13.90;99.90
20744;DHT22;56303;52.160;-0.428;2024-03-17T06:37:44;13.80;99.90
20744;DHT22;56303;52.160;-0.428;2024-03-17T06:40:15;13.70;99.90
20744;DHT22;56303;52.160;-0.428;2024-03-17T06:42:41;13.70;99.90
20744;DHT22;56303;52.160;-0.428;2024-03-17T06:45:07;13.50;99.90
20744;DHT22;56303;52.160;-0.428;2024-03-17T06:47:35;13.50;99.90
20744;DHT22;56303;52.160;-0.428;2024-03-17T06:50:05;13.60;99.90
20744;DHT22;56303;52.160;-0.428;2024-03-17T06:52:32;13.50;99.90
20744;DHT22;56303;52.160;-0.428;2024-03-17T06:54:58;13.50;99.90
20744;DHT22;56303;52.160;-0.428;2024-03-17T06:57:24;13.50;99.90
20744;DHT22;56303;52.160;-0.428;2024-03-17T06:59:51;13.50;99.90
20744;DHT22;56303;52.160;-0.428;2024-03-17T07:02:17;13.60;99.90
20744;DHT22;56303;52.160;-0.428;2024-03-17T07:04:46;13.50;99.90
20744;DHT22;56303;52.160;-0.428;2024-03-17T07:07:13;13.50;99.90
20744;DHT22;56303;52.160;-0.428;2024-03-17T07:09:42;13.50;99.90
20744;DHT22;56303;52.160;-0.428;2024-03-17T07:12:10;13.60;99.90
20744;DHT22;56303;52.160;-0.428;2024-03-17T07:14:37;13.60;99.90
20744;DHT22;56303;52.160;-0.428;2024-03-17T07:17:03;13.60;99.90
20744;DHT22;56303;52.160;-0.428;2024-03-17T07:19:30;13.50;99.90
20744;DHT22;56303;52.160;-0.428;2024-03-17T07:21:57;13.60;99.90
20744;DHT22;56303;52.160;-0.428;2024-03-17T07:24:23;13.80;99.90
20744;DHT22;56303;52.160;-0.428;2024-03-17T07:26:49;13.60;99.90
20744;DHT22;56303;52.160;-0.428;2024-03-17T07:29:16;13.50;99.90
20744;DHT22;56303;52.160;-0.428;2024-03-17T07:31:42;13.80;99.90
20744;DHT22;56303;52.160;-0.428;2024-03-17T07:34:08;13.70;99.90
20744;DHT22;56303;52.160;-0.428;2024-03-17T07:36:35;13.70;99.90
20744;DHT22;56303;52.160;-0.428;2024-03-17T07:39:02;13.80;99.90
20744;DHT22;56303;52.160;-0.428;2024-03-17T07:41:28;13.80;99.90
20744;DHT22;56303;52.160;-0.428;2024-03-17T07:43:54;13.80;99.90
20744;DHT22;56303;52.160;-0.428;2024-03-17T07:46:19;13.80;99.90
20744;DHT22;56303;52.160;-0.428;2024-03-17T07:48:45;13.90;99.90
20744;DHT22;56303;52.160;-0.428;2024-03-17T07:51:13;13.90;99.90
20744;DHT22;56303;52.160;-0.428;2024-03-17T07:53:44;13.80;99.90
20744;DHT22;56303;52.160;-0.428;2024-03-17T07:56:12;13.80;99.90
20744;DHT22;56303;52.160;-0.428;2024-03-17T07:58:40;13.90;99.90
20744;DHT22;56303;52.160;-0.428;2024-03-17T08:01:08;13.80;99.90
20744;DHT22;56303;52.160;-0.428;2024-03-17T08:03:36;13.60;99.90
20744;DHT22;56303;52.160;-0.428;2024-03-17T08:06:05;13.70;99.90
20744;DHT22;56303;52.160;-0.428;2024-03-17T08:08:31;13.60;99.90
20744;DHT22;56303;52.160;-0.428;2024-03-17T08:10:58;13.80;99.90
20744;DHT22;56303;52.160;-0.428;2024-03-17T08:13:24;13.60;99.90
20744;DHT22;56303;52.160;-0.428;2024-03-17T08:15:58;13.80;99.90
20744;DHT22;56303;52.160;-0.428;2024-03-17T08:18:25;13.80;99.90
20744;DHT22;56303;52.160;-0.428;2024-03-17T08:20:53;13.90;99.90
20744;DHT22;56303;52.160;-0.428;2024-03-17T08:23:23;14.20;99.90
20744;DHT22;56303;52.160;-0.428;2024-03-17T08:25:56;14.00;99.90
20744;DHT22;56303;52.160;-0.428;2024-03-17T08:28:23;14.00;99.90
20744;DHT22;56303;52.160;-0.428;2024-03-17T08:31:02;14.10;99.90
20744;DHT22;56303;52.160;-0.428;2024-03-17T08:33:28;14.20;99.90
20744;DHT22;56303;52.160;-0.428;2024-03-17T08:35:56;14.20;99.90
20744;DHT22;56303;52.160;-0.428;2024-03-17T08:38:22;14.10;99.90
20744;DHT22;56303;52.160;-0.428;2024-03-17T08:40:52;14.20;99.90
20744;DHT22;56303;52.160;-0.428;2024-03-17T08:43:20;14.00;99.90
20744;DHT22;56303;52.160;-0.428;2024-03-17T08:48:30;15.30;99.90
20744;DHT22;56303;52.160;-0.428;2024-03-17T08:51:00;14.10;99.90
20744;DHT22;56303;52.160;-0.428;2024-03-17T08:53:27;14.00;99.90
20744;DHT22;56303;52.160;-0.428;2024-03-17T08:55:54;13.90;99.90
20744;DHT22;56303;52.160;-0.428;2024-03-17T08:58:20;13.90;99.90
20744;DHT22;56303;52.160;-0.428;2024-03-17T09:00:47;13.80;99.90
20744;DHT22;56303;52.160;-0.428;2024-03-17T09:03:13;14.00;99.90
20744;DHT22;56303;52.160;-0.428;2024-03-17T09:05:44;13.90;99.90
20744;DHT22;56303;52.160;-0.428;2024-03-17T09:08:17;13.40;99.90
20744;DHT22;56303;52.160;-0.428;2024-03-17T09:10:47;14.20;99.90
20744;DHT22;56303;52.160;-0.428;2024-03-17T09:13:23;13.90;99.90
20744;DHT22;56303;52.160;-0.428;2024-03-17T09:15:57;13.90;99.90
20744;DHT22;56303;52.160;-0.428;2024-03-17T09:18:26;13.90;99.90
20744;DHT22;56303;52.160;-0.428;2024-03-17T09:21:00;14.20;99.90
20744;DHT22;56303;52.160;-0.428;2024-03-17T09:23:27;14.20;99.90
20744;DHT22;56303;52.160;-0.428;2024-03-17T09:26:03;14.40;99.90
20744;DHT22;56303;52.160;-0.428;2024-03-17T09:28:30;14.20;99.90
20744;DHT22;56303;52.160;-0.428;2024-03-17T09:30:57;14.30;99.90
20744;DHT22;56303;52.160;-0.428;2024-03-17T09:33:25;14.30;99.90
20744;DHT22;56303;52.160;-0.428;2024-03-17T09:35:54;14.10;99.90
20744;DHT22;56303;52.160;-0.428;2024-03-17T09:38:21;14.40;99.90
20744;DHT22;56303;52.160;-0.428;2024-03-17T09:40:47;14.40;99.90
20744;DHT22;56303;52.160;-0.428;2024-03-17T09:43:15;14.50;99.90
20744;DHT22;56303;52.160;-0.428;2024-03-17T09:45:41;14.60;99.90
20744;DHT22;56303;52.160;-0.428;2024-03-17T09:48:10;14.30;99.90
20744;DHT22;56303;52.160;-0.428;2024-03-17T09:50:39;14.20;99.90
20744;DHT22;56303;52.160;-0.428;2024-03-17T09:53:06;14.20;99.90
20744;DHT22;56303;52.160;-0.428;2024-03-17T09:55:39;14.10;99.90
20744;DHT22;56303;52.160;-0.428;2024-03-17T09:58:15;13.90;99.90
20744;DHT22;56303;52.160;-0.428;2024-03-17T10:00:41;14.00;99.90
20744;DHT22;56303;52.160;-0.428;2024-03-17T10:03:07;13.80;99.90
20744;DHT22;56303;52.160;-0.428;2024-03-17T10:05:33;13.80;99.90
20744;DHT22;56303;52.160;-0.428;2024-03-17T10:07:59;13.90;99.90
20744;DHT22;56303;52.160;-0.428;2024-03-17T10:10:25;13.80;99.90
20744;DHT22;56303;52.160;-0.428;2024-03-17T10:12:51;14.00;99.90
20744;DHT22;56303;52.160;-0.428;2024-03-17T10:15:18;13.60;99.90
20744;DHT22;56303;52.160;-0.428;2024-03-17T10:17:44;14.00;99.90
20744;DHT22;56303;52.160;-0.428;2024-03-17T10:23:05;14.10;99.90
20744;DHT22;56303;52.160;-0.428;2024-03-17T10:25:34;14.10;99.90
20744;DHT22;56303;52.160;-0.428;2024-03-17T10:28:01;13.60;99.90
20744;DHT22;56303;52.160;-0.428;2024-03-17T10:30:27;13.80;99.90
20744;DHT22;56303;52.160;-0.428;2024-03-17T10:32:59;13.70;99.90
20744;DHT22;56303;52.160;-0.428;2024-03-17T10:35:36;13.80;99.90
20744;DHT22;56303;52.160;-0.428;2024-03-17T10:38:07;14.20;99.90
20744;DHT22;56303;52.160;-0.428;2024-03-17T10:40:34;14.00;99.90
20744;DHT22;56303;52.160;-0.428;2024-03-17T10:43:04;14.20;99.90
20744;DHT22;56303;52.160;-0.428;2024-03-17T10:45:32;13.80;99.90
20744;DHT22;56303;52.160;-0.428;2024-03-17T10:48:08;13.90;99.90
20744;DHT22;56303;52.160;-0.428;2024-03-17T10:50:39;14.10;99.90
20744;DHT22;56303;52.160;-0.428;2024-03-17T10:53:06;14.10;99.90
20744;DHT22;56303;52.160;-0.428;2024-03-17T10:58:15;14.40;99.90
20744;DHT22;56303;52.160;-0.428;2024-03-17T11:00:45;14.60;99.90
20744;DHT22;56303;52.160;-0.428;2024-03-17T11:03:13;14.60;99.90
20744;DHT22;56303;52.160;-0.428;2024-03-17T11:05:39;14.80;99.90
20744;DHT22;56303;52.160;-0.428;2024-03-17T11:08:06;14.70;99.90
20744;DHT22;56303;52.160;-0.428;2024-03-17T11:10:38;14.40;99.90
20744;DHT22;56303;52.160;-0.428;2024-03-17T11:13:04;14.30;99.90
20744;DHT22;56303;52.160;-0.428;2024-03-17T11:23:03;14.30;99.90
20744;DHT22;56303;52.160;-0.428;2024-03-17T11:28:02;15.00;99.90
20744;DHT22;56303;52.160;-0.428;2024-03-17T11:39:10;14.70;99.90
20744;DHT22;56303;52.160;-0.428;2024-03-17T11:41:53;14.90;99.90
20744;DHT22;56303;52.160;-0.428;2024-03-17T11:52:12;15.30;99.90
20744;DHT22;56303;52.160;-0.428;2024-03-17T11:54:44;15.00;99.90
20744;DHT22;56303;52.160;-0.428;2024-03-17T11:57:14;15.40;99.90
20744;DHT22;56303;52.160;-0.428;2024-03-17T11:59:46;15.70;99.90
20744;DHT22;56303;52.160;-0.428;2024-03-17T12:02:30;15.50;99.90
20744;DHT22;56303;52.160;-0.428;2024-03-17T12:05:01;15.80;99.90
20744;DHT22;56303;52.160;-0.428;2024-03-17T12:07:27;15.50;99.90
20744;DHT22;56303;52.160;-0.428;2024-03-17T12:09:55;15.20;99.90
20744;DHT22;56303;52.160;-0.428;2024-03-17T12:12:23;15.30;99.90
20744;DHT22;56303;52.160;-0.428;2024-03-17T12:14:50;15.40;99.90
20744;DHT22;56303;52.160;-0.428;2024-03-17T12:17:21;15.60;99.90
20744;DHT22;56303;52.160;-0.428;2024-03-17T12:19:48;15.30;99.90
20744;DHT22;56303;52.160;-0.428;2024-03-17T12:22:19;16.70;99.90
20744;DHT22;56303;52.160;-0.428;2024-03-17T12:24:51;15.40;99.90
20744;DHT22;56303;52.160;-0.428;2024-03-17T12:27:23;15.30;99.90
20744;DHT22;56303;52.160;-0.428;2024-03-17T12:29:54;15.10;99.90
20744;DHT22;56303;52.160;-0.428;2024-03-17T12:32:24;15.40;99.90
20744;DHT22;56303;52.160;-0.428;2024-03-17T12:34:55;15.00;99.90
20744;DHT22;56303;52.160;-0.428;2024-03-17T12:37:27;14.80;99.90
20744;DHT22;56303;52.160;-0.428;2024-03-17T12:40:00;15.00;99.90
20744;DHT22;56303;52.160;-0.428;2024-03-17T12:42:27;15.10;99.90
20744;DHT22;56303;52.160;-0.428;2024-03-17T12:44:57;15.30;99.90
20744;DHT22;56303;52.160;-0.428;2024-03-17T12:47:25;15.70;99.90
20744;DHT22;56303;52.160;-0.428;2024-03-17T12:49:52;16.00;99.90
20744;DHT22;56303;52.160;-0.428;2024-03-17T12:52:29;16.20;99.90
20744;DHT22;56303;52.160;-0.428;2024-03-17T12:57:48;16.30;99.90
20744;DHT22;56303;52.160;-0.428;2024-03-17T13:00:33;16.30;99.90
20744;DHT22;56303;52.160;-0.428;2024-03-17T13:03:07;16.30;99.90
20744;DHT22;56303;52.160;-0.428;2024-03-17T13:05:34;16.20;99.90
20744;DHT22;56303;52.160;-0.428;2024-03-17T13:08:00;16.30;99.90
20744;DHT22;56303;52.160;-0.428;2024-03-17T13:10:28;16.50;99.90
20744;DHT22;56303;52.160;-0.428;2024-03-17T13:13:05;16.50;99.90
20744;DHT22;56303;52.160;-0.428;2024-03-17T13:15:33;16.20;99.90
20744;DHT22;56303;52.160;-0.428;2024-03-17T13:18:03;16.30;99.90
20744;DHT22;56303;52.160;-0.428;2024-03-17T13:20:31;16.70;99.90
20744;DHT22;56303;52.160;-0.428;2024-03-17T13:22:57;16.50;99.90
20744;DHT22;56303;52.160;-0.428;2024-03-17T13:25:24;16.30;99.90
20744;DHT22;56303;52.160;-0.428;2024-03-17T13:27:52;16.40;99.90
20744;DHT22;56303;52.160;-0.428;2024-03-17T13:30:20;16.50;99.90
20744;DHT22;56303;52.160;-0.428;2024-03-17T13:32:53;16.60;99.90
20744;DHT22;56303;52.160;-0.428;2024-03-17T13:35:29;16.90;99.90
20744;DHT22;56303;52.160;-0.428;2024-03-17T13:37:56;17.20;99.90
20744;DHT22;56303;52.160;-0.428;2024-03-17T13:40:27;17.60;99.90
20744;DHT22;56303;52.160;-0.428;2024-03-17T13:42:55;17.60;99.90
20744;DHT22;56303;52.160;-0.428;2024-03-17T13:45:24;17.10;99.90
20744;DHT22;56303;52.160;-0.428;2024-03-17T13:47:58;17.40;99.90
20744;DHT22;56303;52.160;-0.428;2024-03-17T13:50:25;17.20;99.90
20744;DHT22;56303;52.160;-0.428;2024-03-17T13:52:51;17.10;99.90
20744;DHT22;56303;52.160;-0.428;2024-03-17T13:55:19;16.80;99.90
20744;DHT22;56303;52.160;-0.428;2024-03-17T13:57:53;16.50;99.90
20744;DHT22;56303;52.160;-0.428;2024-03-17T14:00:29;16.40;99.90
20744;DHT22;56303;52.160;-0.428;2024-03-17T14:02:56;16.20;99.90
20744;DHT22;56303;52.160;-0.428;2024-03-17T14:05:24;16.40;99.90
20744;DHT22;56303;52.160;-0.428;2024-03-17T14:07:52;16.50;99.90
20744;DHT22;56303;52.160;-0.428;2024-03-17T14:10:20;16.50;99.90
20744;DHT22;56303;52.160;-0.428;2024-03-17T14:12:46;16.90;99.90
20744;DHT22;56303;52.160;-0.428;2024-03-17T14:15:14;17.60;99.90
20744;DHT22;56303;52.160;-0.428;2024-03-17T14:17:45;17.70;99.90
20744;DHT22;56303;52.160;-0.428;2024-03-17T14:20:12;17.40;99.90
20744;DHT22;56303;52.160;-0.428;2024-03-17T14:22:43;17.00;99.90
20744;DHT22;56303;52.160;-0.428;2024-03-17T14:25:19;16.90;99.90
20744;DHT22;56303;52.160;-0.428;2024-03-17T14:27:45;16.90;99.90
20744;DHT22;56303;52.160;-0.428;2024-03-17T14:30:16;16.70;99.90
20744;DHT22;56303;52.160;-0.428;2024-03-17T14:32:43;16.60;99.90
20744;DHT22;56303;52.160;-0.428;2024-03-17T14:35:13;16.60;99.90
20744;DHT22;56303;52.160;-0.428;2024-03-17T14:37:41;16.70;99.90
20744;DHT22;56303;52.160;-0.428;2024-03-17T14:40:10;16.60;99.90
20744;DHT22;56303;52.160;-0.428;2024-03-17T14:42:43;16.60;99.90
20744;DHT22;56303;52.160;-0.428;2024-03-17T14:45:10;16.60;99.90
20744;DHT22;56303;52.160;-0.428;2024-03-17T14:47:36;16.40;99.90
20744;DHT22;56303;52.160;-0.428;2024-03-17T14:50:02;16.60;99.90
20744;DHT22;56303;52.160;-0.428;2024-03-17T14:52:28;16.70;99.90
20744;DHT22;56303;52.160;-0.428;2024-03-17T14:54:54;17.00;99.90
20744;DHT22;56303;52.160;-0.428;2024-03-17T14:57:22;18.40;99.90
20744;DHT22;56303;52.160;-0.428;2024-03-17T14:59:48;18.50;99.90
20744;DHT22;56303;52.160;-0.428;2024-03-17T15:02:14;18.40;99.90
20744;DHT22;56303;52.160;-0.428;2024-03-17T15:04:41;17.90;99.90
20744;DHT22;56303;52.160;-0.428;2024-03-17T15:07:07;17.90;99.90
20744;DHT22;56303;52.160;-0.428;2024-03-17T15:09:34;17.90;99.90
20744;DHT22;56303;52.160;-0.428;2024-03-17T15:12:00;17.80;99.90
20744;DHT22;56303;52.160;-0.428;2024-03-17T15:14:29;18.40;99.90
20744;DHT22;56303;52.160;-0.428;2024-03-17T15:16:57;18.20;99.90
20744;DHT22;56303;52.160;-0.428;2024-03-17T15:19:23;18.30;99.90
20744;DHT22;56303;52.160;-0.428;2024-03-17T15:21:49;18.90;99.90
20744;DHT22;56303;52.160;-0.428;2024-03-17T15:24:14;19.00;99.90
20744;DHT22;56303;52.160;-0.428;2024-03-17T15:26:40;19.60;99.90
20744;DHT22;56303;52.160;-0.428;2024-03-17T15:29:06;19.70;99.90
20744;DHT22;56303;52.160;-0.428;2024-03-17T15:31:32;20.40;99.90
20744;DHT22;56303;52.160;-0.428;2024-03-17T15:33:58;20.20;99.90
20744;DHT22;56303;52.160;-0.428;2024-03-17T15:36:25;20.30;99.90
20744;DHT22;56303;52.160;-0.428;2024-03-17T15:38:51;20.80;99.90
20744;DHT22;56303;52.160;-0.428;2024-03-17T15:41:17;21.60;99.90
20744;DHT22;56303;52.160;-0.428;2024-03-17T15:43:43;22.10;99.90
20744;DHT22;56303;52.160;-0.428;2024-03-17T15:46:18;23.00;99.90
20744;DHT22;56303;52.160;-0.428;2024-03-17T15:48:44;22.00;99.90
20744;DHT22;56303;52.160;-0.428;2024-03-17T15:51:11;21.40;99.90
20744;DHT22;56303;52.160;-0.428;2024-03-17T15:53:37;21.00;99.90
20744;DHT22;56303;52.160;-0.428;2024-03-17T15:56:04;20.90;99.90